Time;durP1;ratioP1;P1;durP2;ratioP2;P2;SDS_P1;SDS_P2;PMS_P1;PMS_P2;Temp;Humidity;BMP_temperature;BMP_pressure;BME280_temperature;BME280_humidity;BME280_pressure;Samples;Min_cycle;Max_cycle;Signal;HPM_P1;HPM_P2
2021/01/18 00:02:03;;;;;;;42.33;18.63;;;;;;;-11.56;74.69;97010.78;1710807;84;21123;-81
2021/01/18 00:04:30;;;;;;;46.67;19.93;;;;;;;-11.52;74.69;97007.86;1710884;84;21187;-82
2021/01/18 00:06:57;;;;;;;41.50;18.47;;;;;;;-11.48;74.76;97018.16;1710798;84;21131;-81
2021/01/18 00:09:24;;;;;;;30.03;15.17;;;;;;;-11.43;74.77;97016.00;1710767;83;21193;-81
2021/01/18 00:11:51;;;;;;;32.97;16.63;;;;;;;-11.39;74.64;97012.27;1710852;84;21531;-81
2021/01/18 00:14:18;;;;;;;35.17;16.07;;;;;;;-11.48;74.44;97007.92;1710770;84;21154;-82
2021/01/18 00:16:45;;;;;;;29.47;13.80;;;;;;;-11.56;74.38;97003.92;1710588;84;21179;-81
2021/01/18 00:19:12;;;;;;;15.23;8.77;;;;;;;-11.63;74.41;97002.03;1709505;82;21127;-82
2021/01/18 00:21:46;;;;;;;32.87;14.27;;;;;;;-11.69;74.50;97000.78;1708591;84;21630;-82
2021/01/18 00:24:14;;;;;;;25.47;12.63;;;;;;;-11.73;74.63;96993.86;1708503;84;21163;-81
2021/01/18 00:26:41;;;;;;;27.43;13.93;;;;;;;-11.78;74.67;96998.56;1708489;84;21188;-82
2021/01/18 00:29:07;;;;;;;40.93;15.87;;;;;;;-11.80;74.75;97002.22;1708572;82;21135;-82
2021/01/18 00:31:34;;;;;;;39.23;16.90;;;;;;;-11.80;74.73;96997.11;1708575;84;21175;-81
2021/01/18 00:34:01;;;;;;;34.70;15.43;;;;;;;-11.82;74.68;97002.36;1708692;84;21136;-82
2021/01/18 00:36:29;;;;;;;36.93;16.90;;;;;;;-11.85;74.59;97001.78;1708507;84;21665;-81
2021/01/18 00:38:56;;;;;;;38.30;18.63;;;;;;;-11.87;74.61;97006.22;1708493;84;21463;-81
2021/01/18 00:41:23;;;;;;;39.83;17.20;;;;;;;-11.87;74.61;97013.89;1708601;84;21159;-81
2021/01/18 00:43:49;;;;;;;40.57;16.27;;;;;;;-11.84;74.76;97009.31;1708583;84;21558;-81
2021/01/18 00:46:18;;;;;;;35.47;16.60;;;;;;;-11.78;74.79;97018.20;1708478;84;21701;-81
2021/01/18 00:48:45;;;;;;;37.00;19.32;;;;;;;-11.77;74.76;97023.19;1708711;84;21159;-82
2021/01/18 00:51:12;;;;;;;36.50;17.40;;;;;;;-11.82;74.67;97022.81;1708657;84;21163;-81
2021/01/18 00:53:39;;;;;;;50.13;21.33;;;;;;;-11.89;74.56;97023.44;1680149;85;21176;-82
2021/01/18 00:56:06;;;;;;;39.83;18.47;;;;;;;-11.92;74.60;97022.42;1708795;84;21131;-82
2021/01/18 00:58:33;;;;;;;38.20;20.37;;;;;;;-11.94;74.66;97019.19;1708576;84;21159;-82
2021/01/18 01:01:00;;;;;;;51.73;21.43;;;;;;;-12.02;74.56;97018.54;1708486;84;21285;-81
2021/01/18 01:03:27;;;;;;;38.30;19.17;;;;;;;-12.13;74.57;97011.76;1678872;85;21175;-81
2021/01/18 01:05:54;;;;;;;39.10;18.73;;;;;;;-12.15;74.59;97008.52;1708592;84;21539;-81
2021/01/18 01:08:20;;;;;;;44.60;20.00;;;;;;;-12.24;74.53;97010.58;1678744;85;21611;-81
2021/01/18 01:10:47;;;;;;;44.40;19.53;;;;;;;-12.33;74.57;97012.61;1708475;84;21535;-81
2021/01/18 01:13:14;;;;;;;40.30;18.03;;;;;;;-12.36;74.66;97015.42;1680234;85;21513;-81
2021/01/18 01:15:41;;;;;;;45.13;19.50;;;;;;;-12.38;74.75;97013.47;1708781;84;21168;-82
2021/01/18 01:18:09;;;;;;;48.43;19.30;;;;;;;-12.36;74.91;97020.53;1708374;82;21278;-81
2021/01/18 01:20:36;;;;;;;45.73;17.63;;;;;;;-12.33;75.00;97024.10;1708515;84;21278;-81
2021/01/18 01:23:03;;;;;;;39.77;17.53;;;;;;;-12.30;75.04;97020.02;1678745;85;21187;-81
2021/01/18 01:25:30;;;;;;;42.17;18.10;;;;;;;-12.31;75.00;97026.87;1708575;84;21163;-82
2021/01/18 01:27:57;;;;;;;35.93;17.30;;;;;;;-12.36;74.97;97035.86;1678755;85;21180;-81
2021/01/18 01:30:26;;;;;;;38.37;17.77;;;;;;;-12.45;75.01;97027.19;1708945;84;21196;-81
2021/01/18 01:32:54;;;;;;;34.53;15.20;;;;;;;-12.50;75.09;97023.40;1678685;85;21160;-81
2021/01/18 01:35:26;;;;;;;37.03;15.10;;;;;;;-12.54;75.18;97020.73;1708597;84;21329;-81
2021/01/18 01:37:55;;;;;;;44.50;20.57;;;;;;;-12.64;75.11;97026.61;1678796;85;21117;-81
2021/01/18 01:40:23;;;;;;;40.30;19.10;;;;;;;-12.76;75.09;97023.76;1708940;84;21551;-81
2021/01/18 01:42:50;;;;;;;44.03;17.87;;;;;;;-12.86;75.11;97022.87;1680270;85;21192;-81
2021/01/18 01:45:20;;;;;;;34.73;17.93;;;;;;;-12.94;75.14;97023.50;1708684;84;21128;-81
2021/01/18 01:47:51;;;;;;;41.10;19.55;;;;;;;-12.94;75.31;97015.03;1708737;84;21172;-81
2021/01/18 01:50:29;;;;;;;40.17;18.90;;;;;;;-12.90;75.52;97022.78;1708677;84;21541;-81
2021/01/18 01:53:20;;;;;;;44.33;17.50;;;;;;;-12.84;75.70;97016.36;1680257;85;21535;-81
2021/01/18 01:55:50;;;;;;;34.03;17.17;;;;;;;-12.81;75.78;97020.75;1678571;84;21147;-81
2021/01/18 01:58:17;;;;;;;39.60;19.32;;;;;;;-12.76;75.83;97023.76;1678990;85;21172;-81
2021/01/18 02:00:44;;;;;;;47.80;19.23;;;;;;;-12.71;75.79;97032.31;1708594;84;21155;-81
2021/01/18 02:06:06;;;;;;;48.13;19.90;;;;;;;-12.63;75.55;97034.61;1818345;79;22952;-81
2021/01/18 02:08:34;;;;;;;44.30;17.13;;;;;;;-12.85;75.19;97039.80;1782735;80;21155;-81
2021/01/18 02:11:01;;;;;;;41.40;16.10;;;;;;;-12.97;75.17;97040.30;1752228;82;21124;-81
2021/01/18 02:14:04;;;;;;;38.47;15.80;;;;;;;-13.03;75.31;97041.27;1752330;82;21147;-81
2021/01/18 02:16:57;;;;;;;31.67;16.17;;;;;;;-13.08;75.47;97045.94;1751432;82;21281;-82
2021/01/18 02:20:07;;;;;;;27.53;13.80;;;;;;;-13.28;75.25;97047.05;1752473;82;21170;-82
2021/01/18 02:22:43;;;;;;;30.10;15.73;;;;;;;-13.34;75.72;97041.16;1750663;82;21483;-82
2021/01/18 02:25:32;;;;;;;36.97;18.00;;;;;;;-13.37;76.00;97035.47;1748486;82;21148;-82
2021/01/18 02:28:28;;;;;;;39.60;16.45;;;;;;;-13.36;76.11;97035.37;1752423;82;21148;-83
2021/01/18 02:31:30;;;;;;;42.70;21.33;;;;;;;-13.41;75.94;97027.25;1752280;82;21266;-83
2021/01/18 02:34:28;;;;;;;53.03;21.67;;;;;;;-13.47;75.97;97032.84;1750969;82;21140;-83
2021/01/18 02:37:13;;;;;;;42.33;21.17;;;;;;;-13.47;76.14;97032.03;1752290;81;21132;-82
2021/01/18 02:40:06;;;;;;;51.40;22.60;;;;;;;-13.48;76.45;97027.87;1752460;81;21480;-83
2021/01/18 02:42:54;;;;;;;60.73;23.93;;;;;;;-13.51;76.64;97032.72;1752285;82;21262;-82
2021/01/18 02:45:23;;;;;;;48.77;20.00;;;;;;;-13.54;76.43;97029.13;1752250;82;21128;-82
2021/01/18 02:47:51;;;;;;;62.08;21.12;;;;;;;-13.57;75.94;97026.83;1722995;82;21144;-82
2021/01/18 02:50:20;;;;;;;49.67;20.13;;;;;;;-13.52;75.64;97026.00;1752429;81;21199;-82
2021/01/18 02:52:49;;;;;;;49.73;19.00;;;;;;;-13.46;75.63;97031.10;1752393;81;21141;-82
2021/01/18 02:55:17;;;;;;;35.63;15.20;;;;;;;-13.45;75.43;97028.43;1752361;81;21151;-82
2021/01/18 02:57:48;;;;;;;33.03;15.47;;;;;;;-13.54;75.26;97027.39;1752251;82;21171;-82
2021/01/18 03:00:25;;;;;;;37.13;16.10;;;;;;;-13.72;75.43;97022.45;1766472;81;21272;-82
2021/01/18 03:03:19;;;;;;;49.40;19.63;;;;;;;-13.84;75.99;97024.66;1776619;81;21092;-82
2021/01/18 03:06:09;;;;;;;28.73;15.10;;;;;;;-13.92;76.30;97018.08;1784097;80;21172;-82
2021/01/18 03:08:40;;;;;;;42.67;15.23;;;;;;;-13.99;76.71;97017.71;1783560;80;21137;-82
2021/01/18 03:11:15;;;;;;;30.17;15.10;;;;;;;-14.07;76.78;97011.56;1788353;80;21125;-82
2021/01/18 03:14:04;;;;;;;45.10;18.13;;;;;;;-14.22;76.92;97018.16;1788614;80;21481;-82
2021/01/18 03:16:39;;;;;;;;;;;;;;;-14.33;77.02;97017.36;1776853;80;21098;-83
2021/01/18 03:19:09;;;;;;;37.97;14.30;;;;;;;-14.33;77.20;97012.27;1768592;80;20160;-83
2021/01/18 03:21:36;;;;;;;;;;;;;;;-14.32;77.44;97010.88;1771325;81;21159;-82
2021/01/18 03:24:04;;;;;;;34.37;16.50;;;;;;;-14.34;77.56;97014.47;1768601;81;20355;-83
2021/01/18 03:26:31;;;;;;;38.67;18.87;;;;;;;-14.31;77.66;97015.52;1768607;81;21147;-83
2021/01/18 03:28:58;;;;;;;45.30;18.83;;;;;;;-14.23;77.67;97017.81;1768663;80;21491;-83
2021/01/18 03:31:26;;;;;;;41.80;18.73;;;;;;;-14.32;76.88;97018.98;1768671;81;21520;-82
2021/01/18 03:33:53;;;;;;;48.43;21.93;;;;;;;-14.48;76.31;97019.34;1742844;81;21123;-82
2021/01/18 03:36:20;;;;;;;41.73;16.60;;;;;;;-14.49;76.13;97016.45;1768595;81;21139;-82
2021/01/18 03:38:47;;;;;;;44.83;17.00;;;;;;;-14.53;75.79;97017.12;1768648;81;21127;-82
2021/01/18 03:41:14;;;;;;;32.33;15.17;;;;;;;-14.56;75.65;97018.63;1768670;81;21174;-82
2021/01/18 03:43:41;;;;;;;28.97;15.13;;;;;;;-14.50;75.81;97015.61;1768567;81;21167;-83
2021/01/18 03:46:08;;;;;;;47.83;21.60;;;;;;;-14.56;76.07;97004.63;1768590;81;21147;-82
2021/01/18 03:48:36;;;;;;;42.97;16.60;;;;;;;-14.52;76.44;97008.55;1768493;80;21139;-82
2021/01/18 03:51:03;;;;;;;36.57;17.50;;;;;;;-14.49;76.15;97006.27;1768583;81;21135;-82
2021/01/18 03:53:30;;;;;;;31.67;13.97;;;;;;;-14.51;75.84;97010.64;1768596;81;21159;-82
2021/01/18 03:55:57;;;;;;;26.63;13.20;;;;;;;-14.55;75.56;97008.79;1768579;81;21112;-83
2021/01/18 03:58:24;;;;;;;45.67;19.17;;;;;;;-14.64;75.23;97005.64;1768543;80;21204;-83
2021/01/18 04:00:51;;;;;;;37.97;17.00;;;;;;;-14.89;75.11;97010.45;1768577;81;21108;-83
2021/01/18 04:03:19;;;;;;;44.23;16.63;;;;;;;-14.85;75.51;97014.85;1768855;81;21135;-82
2021/01/18 04:05:47;;;;;;;44.50;19.47;;;;;;;-14.80;75.59;97008.95;1761313;81;21159;-82
2021/01/18 04:08:15;;;;;;;40.43;13.57;;;;;;;-14.70;75.57;97015.81;1757312;81;21526;-82
2021/01/18 04:10:43;;;;;;;31.40;12.17;;;;;;;-14.60;75.49;97012.14;1757617;81;21274;-82
2021/01/18 04:13:10;;;;;;;38.50;14.10;;;;;;;-14.56;75.48;97019.89;1757270;81;21160;-82
2021/01/18 04:15:37;;;;;;;36.30;16.47;;;;;;;-14.48;75.54;97013.79;1757522;82;21183;-82
2021/01/18 04:18:05;;;;;;;42.73;15.67;;;;;;;-14.51;75.37;97013.19;1757289;81;21510;-82
2021/01/18 04:20:32;;;;;;;36.47;14.80;;;;;;;-14.46;75.60;97013.21;1757255;82;21154;-82
2021/01/18 04:23:04;;;;;;;42.07;18.10;;;;;;;-14.38;75.75;97007.50;1757348;82;21661;-83
2021/01/18 04:25:29;;;;;;;56.37;21.33;;;;;;;-14.35;75.74;97010.28;1756995;82;21156;-83
2021/01/18 04:28:00;;;;;;;46.07;17.77;;;;;;;-14.30;75.77;97004.40;1757271;82;21535;-82
2021/01/18 04:30:35;;;;;;;39.47;18.23;;;;;;;-14.24;75.79;97008.55;1757261;82;21123;-82
2021/01/18 04:33:07;;;;;;;37.90;14.90;;;;;;;-14.20;75.73;97007.89;1757459;81;21289;-82
2021/01/18 04:35:38;;;;;;;34.57;15.13;;;;;;;-14.17;75.36;97008.92;1757374;81;21302;-82
2021/01/18 04:38:07;;;;;;;40.13;17.27;;;;;;;-14.17;75.39;96997.00;1757208;81;21156;-82
2021/01/18 04:40:35;;;;;;;39.27;16.03;;;;;;;-14.19;74.98;96994.23;1757503;82;21290;-83
2021/01/18 04:43:02;;;;;;;30.07;14.63;;;;;;;-14.15;75.15;96991.79;1757240;82;21519;-83
2021/01/18 04:45:31;;;;;;;36.33;12.97;;;;;;;-14.11;75.19;96995.71;1757201;81;21508;-82
2021/01/18 04:47:59;;;;;;;35.70;17.50;;;;;;;-14.09;75.09;96991.31;1757201;82;21290;-82
2021/01/18 04:50:29;;;;;;;24.97;13.77;;;;;;;-14.15;74.97;96987.50;1757226;81;21151;-82
2021/01/18 04:53:10;;;;;;;31.90;16.25;;;;;;;-14.24;75.59;96989.92;1757653;81;21305;-82
2021/01/18 04:56:11;;;;;;;48.33;19.03;;;;;;;-14.29;75.86;96985.65;1756793;82;21104;-82
2021/01/18 04:58:40;;;;;;;20.17;10.77;;;;;;;-14.44;75.98;96985.09;1757181;81;21151;-83
2021/01/18 05:01:10;;;;;;;27.47;14.70;;;;;;;-14.57;76.21;96977.55;1729872;82;21266;-82
2021/01/18 05:03:41;;;;;;;45.03;21.03;;;;;;;-14.53;76.61;96976.39;1757179;81;21135;-83
2021/01/18 05:06:16;;;;;;;40.73;17.17;;;;;;;-14.48;76.71;96979.89;1724871;82;21140;-82
2021/01/18 05:09:23;;;;;;;26.97;15.60;;;;;;;-14.45;76.66;96983.02;1751603;81;21309;-82
2021/01/18 05:11:52;;;;;;;31.93;14.47;;;;;;;-14.40;76.73;96984.70;1751639;81;21144;-82
2021/01/18 05:14:19;;;;;;;27.40;13.93;;;;;;;-14.36;77.01;96983.20;1751609;81;21293;-82
2021/01/18 05:16:59;;;;;;;44.17;19.30;;;;;;;-14.36;76.94;96985.28;1751650;81;21132;-82
2021/01/18 05:19:28;;;;;;;31.30;14.40;;;;;;;-14.49;76.50;96990.53;1722757;82;21177;-82
2021/01/18 05:21:56;;;;;;;25.70;11.55;;;;;;;-14.63;76.31;96997.11;1751826;82;21306;-82
2021/01/18 05:24:24;;;;;;;37.33;17.20;;;;;;;-14.66;76.60;96998.58;1751708;82;21159;-81
2021/01/18 05:27:05;;;;;;;24.50;13.17;;;;;;;-14.66;76.87;97001.59;1751627;81;21164;-82
2021/01/18 05:29:36;;;;;;;29.47;14.40;;;;;;;-14.63;76.95;96995.02;1751574;81;21294;-82
2021/01/18 05:32:07;;;;;;;37.73;15.33;;;;;;;-14.65;77.01;96994.30;1751693;81;21627;-81
2021/01/18 05:34:37;;;;;;;28.33;14.23;;;;;;;-14.66;77.13;96992.69;1747419;82;21286;-82
2021/01/18 05:37:07;;;;;;;25.72;13.28;;;;;;;-14.68;77.31;97005.98;1751662;81;21155;-81
2021/01/18 05:39:34;;;;;;;30.73;15.87;;;;;;;-14.67;77.31;97003.33;1751585;81;21128;-82
2021/01/18 05:42:02;;;;;;;36.90;16.40;;;;;;;-14.68;77.28;97004.25;1751573;82;21116;-81
2021/01/18 05:44:35;;;;;;;35.20;16.53;;;;;;;-14.64;77.11;97010.73;1751654;81;21537;-81
2021/01/18 05:47:10;;;;;;;39.70;15.17;;;;;;;-14.63;76.92;97009.83;1751430;81;21144;-82
2021/01/18 05:49:49;;;;;;;32.80;15.00;;;;;;;-14.60;76.74;97015.16;1751581;81;21164;-82
2021/01/18 05:52:31;;;;;;;28.50;12.30;;;;;;;-14.61;76.49;97010.98;1751869;82;21168;-82
2021/01/18 05:55:21;;;;;;;26.23;12.00;;;;;;;-14.60;76.34;97012.61;1751602;82;21615;-82
2021/01/18 05:58:00;;;;;;;33.10;15.72;;;;;;;-14.57;76.39;97022.55;1751756;81;21478;-82
2021/01/18 06:00:36;;;;;;;23.23;12.17;;;;;;;-14.59;76.28;97025.22;1751804;82;21278;-82
2021/01/18 06:03:10;;;;;;;42.80;15.57;;;;;;;-14.60;76.43;97035.05;1751698;81;21255;-82
2021/01/18 06:05:41;;;;;;;41.03;15.77;;;;;;;-14.59;76.66;97037.13;1753520;81;21516;-82
2021/01/18 06:08:13;;;;;;;26.77;14.10;;;;;;;-14.55;76.87;97039.33;1757201;81;21115;-82
2021/01/18 06:10:43;;;;;;;34.10;14.33;;;;;;;-14.48;76.99;97035.89;1757311;81;21100;-82
2021/01/18 06:13:23;;;;;;;40.63;17.57;;;;;;;-14.36;77.15;97031.11;1757452;82;21124;-82
2021/01/18 06:16:09;;;;;;;24.03;11.97;;;;;;;-14.30;77.20;97031.13;1757201;81;21144;-82
2021/01/18 06:18:41;;;;;;;31.77;13.23;;;;;;;-14.27;77.00;97030.90;1757134;81;21833;-82
2021/01/18 06:21:12;;;;;;;31.53;12.50;;;;;;;-14.25;76.83;97027.77;1757294;81;21479;-82
2021/01/18 06:23:40;;;;;;;34.03;15.53;;;;;;;-14.18;76.74;97027.67;1757441;81;21262;-82
2021/01/18 06:26:08;;;;;;;27.80;13.57;;;;;;;-14.27;76.50;97024.53;1757143;82;21159;-81
2021/01/18 06:28:40;;;;;;;35.60;16.27;;;;;;;-14.24;76.49;97021.75;1757146;81;21202;-81
2021/01/18 06:31:13;;;;;;;35.27;12.80;;;;;;;-14.26;76.25;97017.23;1757254;82;21452;-82
2021/01/18 06:33:50;;;;;;;22.90;11.03;;;;;;;-14.19;76.17;97019.23;1757202;81;21096;-82
2021/01/18 06:36:27;;;;;;;29.07;13.60;;;;;;;-14.16;75.90;97019.45;1757190;81;21449;-82
2021/01/18 06:39:06;;;;;;;36.90;13.57;;;;;;;-14.11;75.77;97023.73;1757226;81;21164;-82
2021/01/18 06:41:39;;;;;;;36.68;13.60;;;;;;;-14.08;75.63;97013.30;1757572;81;21324;-82
2021/01/18 06:44:08;;;;;;;31.60;13.13;;;;;;;-14.12;75.14;97015.74;1757105;81;21167;-82
2021/01/18 06:46:38;;;;;;;29.53;15.83;;;;;;;-14.09;75.17;97015.05;1757087;81;21268;-81
2021/01/18 06:49:06;;;;;;;34.90;15.20;;;;;;;-14.02;75.11;97014.59;1757342;81;21297;-81
2021/01/18 06:51:36;;;;;;;42.90;16.07;;;;;;;-14.00;75.06;97017.37;1757169;82;21147;-81
2021/01/18 06:54:07;;;;;;;35.20;13.93;;;;;;;-13.93;75.15;97017.27;1757443;81;21510;-81
2021/01/18 06:57:21;;;;;;;27.57;12.23;;;;;;;-13.94;74.74;97018.63;1757258;81;21139;-82
2021/01/18 06:59:58;;;;;;;36.87;14.43;;;;;;;-13.90;74.56;97019.58;1757277;81;21637;-81
2021/01/18 07:02:29;;;;;;;32.67;14.37;;;;;;;-13.73;74.72;97011.09;1756871;82;21143;-81
2021/01/18 07:05:11;;;;;;;43.87;19.13;;;;;;;-13.65;74.22;97015.13;1757423;81;21461;-82
2021/01/18 07:07:40;;;;;;;39.30;19.07;;;;;;;-13.44;74.63;97008.84;1757300;82;21472;-82
2021/01/18 07:10:12;;;;;;;32.37;16.13;;;;;;;-12.98;74.82;97012.36;1757406;81;21309;-82
2021/01/18 07:12:39;;;;;;;38.67;16.93;;;;;;;-12.61;74.52;97007.20;1757302;82;21531;-82
2021/01/18 07:15:10;;;;;;;40.77;19.70;;;;;;;-12.54;73.46;97011.80;1757224;81;21179;-82
2021/01/18 07:17:56;;;;;;;50.90;22.47;;;;;;;-12.50;73.23;97006.33;1756998;82;21104;-82
2021/01/18 07:20:29;;;;;;;38.87;18.23;;;;;;;-12.31;73.49;97010.73;1756984;80;21164;-82
2021/01/18 07:23:09;;;;;;;42.20;20.83;;;;;;;-12.31;72.40;97004.34;1757430;81;21258;-82
2021/01/18 07:25:40;;;;;;;51.17;23.17;;;;;;;-12.22;72.45;97008.70;1750373;82;21528;-82
2021/01/18 07:28:15;;;;;;;53.27;23.80;;;;;;;-12.03;72.34;97007.98;1757398;81;21352;-82
2021/01/18 07:30:42;;;;;;;39.77;20.33;;;;;;;-11.80;72.20;97010.70;1757513;81;21143;-82
2021/01/18 07:33:16;;;;;;;47.67;24.73;;;;;;;-11.61;71.74;97006.55;1757222;81;21143;-82
2021/01/18 07:35:46;;;;;;;49.37;22.37;;;;;;;-11.37;71.85;97002.36;1757243;81;21147;-82
2021/01/18 07:38:24;;;;;;;38.33;19.47;;;;;;;-11.03;71.02;97010.00;1757285;81;21483;-82
2021/01/18 07:41:12;;;;;;;53.37;26.03;;;;;;;-10.80;70.22;96997.75;1757500;81;21301;-82
2021/01/18 07:43:49;;;;;;;47.38;23.92;;;;;;;-10.53;70.03;97009.38;1757503;81;21085;-82
2021/01/18 07:46:31;;;;;;;52.07;25.17;;;;;;;-10.37;69.53;97004.97;1757203;82;21131;-82
2021/01/18 07:49:18;;;;;;;34.43;19.03;;;;;;;-10.20;69.52;97011.09;1757294;81;21511;-82
2021/01/18 07:51:45;;;;;;;49.40;22.87;;;;;;;-9.83;69.61;97008.56;1757299;81;21498;-82
2021/01/18 07:54:34;;;;;;;45.53;25.60;;;;;;;-9.48;69.29;97013.45;1757290;82;21151;-82
2021/01/18 07:57:30;;;;;;;48.05;23.15;;;;;;;-9.20;69.19;97013.75;1757329;82;21170;-82
2021/01/18 08:00:24;;;;;;;50.00;28.12;;;;;;;-8.67;69.84;97022.44;1757290;81;21265;-82
2021/01/18 08:03:15;;;;;;;53.68;27.90;;;;;;;-7.90;69.57;97019.88;1757383;82;21144;-82
2021/01/18 08:05:44;;;;;;;71.30;40.83;;;;;;;-7.45;69.23;97023.97;1757194;81;21116;-82
2021/01/18 08:08:21;;;;;;;50.25;30.37;;;;;;;-7.19;68.24;97031.11;1757271;81;21511;-82
2021/01/18 08:11:18;;;;;;;55.33;28.85;;;;;;;-6.90;68.28;97024.73;1756448;82;21670;-82
2021/01/18 08:13:53;;;;;;;56.08;28.67;;;;;;;-6.70;67.50;97022.20;1757202;82;21139;-82
2021/01/18 08:16:39;;;;;;;49.35;25.62;;;;;;;-6.59;67.31;97021.89;1756978;82;21128;-82
2021/01/18 08:19:26;;;;;;;54.42;26.25;;;;;;;-6.52;67.01;97028.98;1757373;81;21301;-82
2021/01/18 08:22:00;;;;;;;50.05;26.25;;;;;;;-6.42;66.51;97029.63;1757310;81;21134;-82
2021/01/18 08:24:35;;;;;;;55.25;27.67;;;;;;;-6.17;66.69;97029.95;1757619;82;21658;-82
2021/01/18 08:27:08;;;;;;;62.33;27.47;;;;;;;-5.88;66.69;97030.67;1757199;81;21132;-82
2021/01/18 08:29:52;;;;;;;62.60;30.60;;;;;;;-5.52;66.46;97027.17;1757260;81;21523;-82
2021/01/18 08:32:33;;;;;;;59.42;30.20;;;;;;;-5.31;65.91;97027.11;1757290;81;21119;-82
2021/01/18 08:35:09;;;;;;;;;;;;;;;-5.35;65.30;97036.15;1760061;81;21273;-82
2021/01/18 08:37:38;;;;;;;62.15;26.60;;;;;;;-5.29;65.40;97041.95;1757226;81;20161;-82
2021/01/18 08:40:16;;;;;;;56.53;30.27;;;;;;;-5.44;64.15;97038.78;1757334;81;21305;-82
2021/01/18 08:42:47;;;;;;;62.98;27.70;;;;;;;-5.75;64.62;97034.84;1757438;81;21480;-83
2021/01/18 08:45:30;;;;;;;65.15;31.57;;;;;;;-5.84;63.25;97035.83;1756363;82;21183;-83
2021/01/18 08:48:07;;;;;;;62.83;29.10;;;;;;;-6.59;62.34;97043.81;1757206;82;21290;-82
2021/01/18 08:50:54;;;;;;;69.42;34.10;;;;;;;-6.62;63.82;97042.02;1757352;81;21129;-82
2021/01/18 08:53:29;;;;;;;66.03;31.33;;;;;;;-6.98;62.40;97040.20;1757158;81;21155;-83
2021/01/18 08:56:05;;;;;;;69.13;34.00;;;;;;;-7.22;63.46;97044.31;1757442;81;21298;-82
2021/01/18 08:58:44;;;;;;;60.80;31.27;;;;;;;-7.37;62.77;97043.30;1757130;81;21515;-82
2021/01/18 09:01:22;;;;;;;63.57;34.40;;;;;;;-7.81;61.97;97039.56;1757425;82;21262;-81
2021/01/18 09:04:08;;;;;;;62.17;30.93;;;;;;;-8.17;62.53;97036.27;1757128;82;21479;-82
2021/01/18 09:06:36;;;;;;;58.13;26.07;;;;;;;-8.01;63.69;97042.03;1754790;81;21163;-82
2021/01/18 09:09:07;;;;;;;55.57;25.67;;;;;;;-7.78;63.93;97040.53;1751604;81;21128;-82
2021/01/18 09:11:35;;;;;;;52.07;24.73;;;;;;;-7.49;64.15;97036.80;1751592;81;21473;-82
2021/01/18 09:14:04;;;;;;;51.40;24.43;;;;;;;-7.26;64.46;97035.30;1751592;82;21327;-82
2021/01/18 09:16:33;;;;;;;59.03;26.53;;;;;;;-7.02;64.40;97029.41;1751387;82;21137;-82
2021/01/18 09:19:08;;;;;;;46.80;21.90;;;;;;;-6.96;63.88;97026.67;1751523;81;21192;-82
2021/01/18 09:21:37;;;;;;;58.53;24.87;;;;;;;-7.20;62.20;97023.06;1751547;82;21163;-83
2021/01/18 09:24:08;;;;;;;50.07;21.03;;;;;;;-7.38;63.25;97024.95;1751880;82;21278;-82
2021/01/18 09:26:35;;;;;;;41.70;18.87;;;;;;;-7.11;63.76;97030.83;1751532;82;21144;-82
2021/01/18 09:29:03;;;;;;;48.47;23.40;;;;;;;-6.85;63.38;97025.58;1751779;81;21274;-82
2021/01/18 09:31:30;;;;;;;54.13;24.63;;;;;;;-6.96;63.48;97019.75;1751593;82;21282;-82
2021/01/18 09:34:12;;;;;;;48.58;22.00;;;;;;;-6.96;63.22;97024.09;1751592;82;21650;-82
2021/01/18 09:36:40;;;;;;;48.47;24.10;;;;;;;-6.71;63.87;97018.50;1751455;82;21112;-83
2021/01/18 09:39:21;;;;;;;40.70;21.10;;;;;;;-6.68;62.97;97016.89;1751686;81;21306;-82
2021/01/18 09:41:48;;;;;;;45.67;22.73;;;;;;;-6.52;63.26;97010.92;1751638;81;21274;-82
2021/01/18 09:44:18;;;;;;;49.87;24.27;;;;;;;-6.33;63.42;97005.46;1751512;81;21152;-82
2021/01/18 09:46:46;;;;;;;49.30;23.67;;;;;;;-6.19;63.16;97006.09;1751467;81;21189;-81
2021/01/18 09:49:28;;;;;;;37.88;20.15;;;;;;;-6.18;62.63;97008.19;1751515;81;21144;-82
2021/01/18 09:51:57;;;;;;;35.92;16.97;;;;;;;-6.16;61.53;97005.75;1751567;81;21100;-82
2021/01/18 09:54:25;;;;;;;34.80;14.00;;;;;;;-6.32;61.13;97008.36;1722290;82;21120;-82
2021/01/18 09:56:55;;;;;;;34.33;17.45;;;;;;;-6.58;60.08;97011.09;1751542;81;21136;-82
2021/01/18 09:59:26;;;;;;;38.33;19.12;;;;;;;-7.33;59.98;97009.02;1751619;81;21156;-82
2021/01/18 10:01:54;;;;;;;36.80;18.20;;;;;;;-7.60;60.79;97006.18;1751552;81;21127;-82
2021/01/18 10:04:24;;;;;;;39.90;19.80;;;;;;;-7.43;62.06;97010.94;1751679;81;21293;-82
2021/01/18 10:07:07;;;;;;;32.98;16.48;;;;;;;-7.18;62.52;97004.87;1754159;81;21179;-82
2021/01/18 10:09:35;;;;;;;47.35;19.70;;;;;;;-6.82;62.32;97007.20;1757127;81;21116;-82
2021/01/18 10:12:07;;;;;;;36.70;19.10;;;;;;;-6.64;62.02;96998.83;1757141;81;21167;-82
2021/01/18 10:14:35;;;;;;;46.02;21.23;;;;;;;-6.52;62.11;96996.26;1730118;82;21112;-82
2021/01/18 10:17:07;;;;;;;37.00;17.27;;;;;;;-6.28;62.25;96989.00;1757254;81;21147;-82
2021/01/18 10:19:37;;;;;;;32.20;17.50;;;;;;;-6.00;62.46;96990.23;1757111;81;21159;-82
2021/01/18 10:22:16;;;;;;;32.23;16.55;;;;;;;-5.84;61.83;96984.19;1757416;81;21136;-82
2021/01/18 10:24:56;;;;;;;37.38;18.07;;;;;;;-5.70;61.33;96981.41;1756594;82;21159;-82
2021/01/18 10:27:29;;;;;;;30.48;15.85;;;;;;;-5.63;61.22;96986.23;1757437;81;21136;-82
2021/01/18 10:30:13;;;;;;;26.93;12.78;;;;;;;-5.63;61.22;96986.23;1757555;81;21164;-82
2021/01/18 10:32:52;;;;;;;29.07;14.35;;;;;;;-5.51;60.70;96996.49;1757658;81;21257;-83
2021/01/18 10:35:31;;;;;;;48.33;25.30;;;;;;;-5.65;60.20;96988.16;1757831;82;21127;-83
2021/01/18 10:38:17;;;;;;;57.83;29.50;;;;;;;-6.08;58.54;96994.11;1757569;81;21278;-83
2021/01/18 10:41:06;;;;;;;53.45;24.70;;;;;;;-6.43;59.77;96988.05;1757388;81;21183;-82
2021/01/18 10:43:35;;;;;;;44.53;22.42;;;;;;;-6.16;61.32;96988.98;1757373;81;21535;-83
2021/01/18 10:46:02;;;;;;;45.35;24.00;;;;;;;-5.74;61.67;96993.85;1757340;81;21538;-82
2021/01/18 10:48:33;;;;;;;51.33;23.22;;;;;;;-5.68;60.46;96997.53;1757141;81;21120;-82
2021/01/18 10:51:04;;;;;;;55.67;27.22;;;;;;;-5.94;59.41;96996.98;1757450;81;21128;-83
2021/01/18 10:53:34;;;;;;;48.95;24.90;;;;;;;-6.23;59.52;96993.66;1757375;82;21274;-83
2021/01/18 10:56:16;;;;;;;56.18;25.88;;;;;;;-6.38;59.34;97002.54;1757435;81;21143;-82
2021/01/18 10:58:55;;;;;;;38.95;20.25;;;;;;;-6.46;59.64;96992.25;1731392;81;21544;-82
2021/01/18 11:01:22;;;;;;;46.92;24.18;;;;;;;-6.44;59.54;96996.75;1757327;81;21136;-82
2021/01/18 11:03:50;;;;;;;47.35;23.18;;;;;;;-6.41;59.99;97001.09;1756749;81;21155;-82
2021/01/18 11:06:21;;;;;;;50.40;22.80;;;;;;;-6.28;60.22;97000.61;1757395;82;21136;-82
2021/01/18 11:08:53;;;;;;;;;;;;;;;-6.11;60.70;96998.32;1760105;81;21173;-83
2021/01/18 11:11:25;;;;;;;46.05;21.77;;;;;;;-5.94;60.54;97002.16;1757068;82;20213;-82
2021/01/18 11:14:04;;;;;;;52.47;24.37;;;;;;;-6.02;59.54;96997.34;1757264;82;21132;-83
2021/01/18 11:16:34;;;;;;;53.25;25.32;;;;;;;-6.15;59.49;96985.43;1756965;82;21139;-82
2021/01/18 11:19:07;;;;;;;56.60;26.87;;;;;;;-6.22;59.25;96985.75;1757228;81;21160;-82
2021/01/18 11:21:35;;;;;;;57.00;27.73;;;;;;;-6.16;60.15;96981.73;1757368;81;21301;-83
2021/01/18 11:24:03;;;;;;;49.80;26.77;;;;;;;-5.94;60.41;96976.34;1757222;82;21143;-82
2021/01/18 11:26:30;;;;;;;54.23;25.50;;;;;;;-5.79;60.36;96976.74;1757727;82;21491;-82
2021/01/18 11:28:57;;;;;;;50.45;25.95;;;;;;;-5.56;60.82;96966.50;1757232;81;21168;-82
2021/01/18 11:31:24;;;;;;;55.48;25.43;;;;;;;-5.41;60.56;96969.98;1757327;81;21522;-83
2021/01/18 11:33:52;;;;;;;55.85;25.60;;;;;;;-5.44;59.70;96966.94;1757511;82;21147;-83
2021/01/18 11:36:25;;;;;;;48.02;25.12;;;;;;;-5.54;59.69;96960.67;1757282;82;21633;-83
2021/01/18 11:38:53;;;;;;;49.80;24.63;;;;;;;-5.46;60.17;96951.61;1757222;81;21143;-83
2021/01/18 11:41:20;;;;;;;55.40;25.20;;;;;;;-5.35;59.95;96957.34;1757398;82;21309;-82
2021/01/18 11:43:48;;;;;;;52.95;25.27;;;;;;;-5.34;59.96;96955.11;1757298;82;21163;-82